Airfield :
LOGIN :

Register | Disclaimer

   EN    FR    IT 

 










Legend :    VFR   Marginal VFR   IFR   Intensive IFR   Very Intensive IFR
Visi :
Ceiling :
>= 8 km
>= 3000ft
5 to 8 km
1000 to 3000 ft
1500m to 5 km
500 to 1000 ft
800 to 1500m
200 to 500 ft
< 800m
< 200 ft
Symbols :   Thunderstorms  Fog  Heavy snow  Heavy precipitations  Wind > 20 kt
SIGMETs :     Misc.  Thunderstorms  Icing  Turbulence  Mountain Waves  Volcanic Ashes







- Airport Elevation : 776 ft
- IATA code : RMS


ETAR - Ramstein Air Base

EXPIRED METARs :
  • 241358Z 27014G24KT 9999 FEW055 26/10 A3002 RMK AO2A SLP163 T02560103 $
  • 241258Z 28013G19KT 9999 FEW055 25/11 A3004 RMK AO2A SLP170 T02460105 $
  • 241158Z 25010G23KT 9999 SCT050 24/11 A3005 RMK AO2A SLP173 T02400105 10242 20173 57012 $

TAF TAF ETAR
Valid from the 24 at 10:00 until the 25 at 16:00 UTC


241004Z 2410/2516 27015G20KT 9999 BKN035 QNH2997INS
BECMG 2417/2418 27009KT 9999 SCT050 QNH2995INS
BECMG 2505/2506 24009KT 9999 BKN050 QNH2994INS
TEMPO 2510/2516 26015G25KT 8000 -SHRA TX25/2415Z TN09/2501Z
No reported NOTAMs for that airfield.



MET'MAP, your aeronautical weather chart ! - Copyright ORBIFLY December 2007 - Disclaimer

ORBIFLY MET'MAP TEAM :

Programming & Development : Alexandra Zaïnal
Concept & Development : Baudouin d'Aumeries
Co-Development & Prog : Marc-Olivier Méhu
Technical & hardware support : Manuel Goepfert

Contact : metmap@orbifly.com




SOURCES & CREDITS :

   NOAA